Time;durP1;ratioP1;P1;durP2;ratioP2;P2;SDS_P1;SDS_P2;PMS_P1;PMS_P2;Temp;Humidity;BMP_temperature;BMP_pressure;BME280_temperature;BME280_humidity;BME280_pressure;Samples;Min_cycle;Max_cycle;Signal;HPM_P1;HPM_P2
2023/07/18 00:00:17;;;;;;;3.15;0.80;;;14.70;99.90;;;13.55;100.00;98304.66;4952380;28;20047;-74
2023/07/18 00:02:45;;;;;;;4.35;1.00;;;14.70;99.90;;;13.78;100.00;98301.06;4951764;28;20063;-74
2023/07/18 00:05:13;;;;;;;6.68;0.88;;;14.80;99.90;;;13.68;100.00;98306.72;4946056;28;20051;-73
2023/07/18 00:07:44;;;;;;;2.15;0.80;;;14.70;99.90;;;13.33;100.00;98306.47;4953364;28;20059;-75
2023/07/18 00:10:12;;;;;;;1.67;0.60;;;14.70;99.90;;;13.36;100.00;98311.56;4933644;28;20055;-75
2023/07/18 00:12:40;;;;;;;5.35;0.88;;;14.60;99.90;;;13.46;100.00;98314.66;4952779;28;20055;-74
2023/07/18 00:15:09;;;;;;;5.85;1.10;;;14.50;99.90;;;13.19;100.00;98320.91;4953855;28;20051;-74
2023/07/18 00:17:38;;;;;;;4.80;0.80;;;14.50;99.90;;;13.10;100.00;98329.09;4957300;28;20047;-74
2023/07/18 00:20:12;;;;;;;6.03;0.80;;;14.50;99.90;;;13.17;100.00;98334.91;4954766;28;20055;-73
2023/07/18 00:22:44;;;;;;;4.65;0.90;;;14.40;99.90;;;13.29;100.00;98334.44;4953522;28;20055;-74
2023/07/18 00:25:28;;;;;;;2.67;0.50;;;14.30;99.90;;;13.19;100.00;98333.09;4953067;28;20058;-74
2023/07/18 00:27:55;;;;;;;3.03;0.60;;;14.20;99.90;;;13.12;100.00;98329.91;4950698;29;20050;-74
2023/07/18 00:30:22;;;;;;;2.67;0.70;;;14.20;99.90;;;13.06;100.00;98329.28;4933824;28;20595;-73
2023/07/18 00:32:50;;;;;;;3.72;0.70;;;14.10;99.90;;;13.12;100.00;98334.25;4972277;28;20066;-74
2023/07/18 00:35:18;;;;;;;3.00;0.93;;;14.10;99.90;;;13.13;100.00;98336.78;4957324;28;20137;-75
2023/07/18 00:37:46;;;;;;;4.22;0.70;;;14.10;99.90;;;13.26;100.00;98339.75;4958803;28;20531;-74
2023/07/18 00:40:15;;;;;;;2.50;0.80;;;14.20;99.90;;;13.13;100.00;98328.97;4924202;28;20923;-75
2023/07/18 00:42:47;;;;;;;4.25;0.77;;;14.30;99.90;;;12.96;100.00;98337.47;4957552;28;20058;-74
2023/07/18 00:45:16;;;;;;;5.07;0.82;;;14.20;99.90;;;12.93;100.00;98340.22;4956187;28;20066;-73
2023/07/18 00:47:47;;;;;;;2.15;0.70;;;14.10;99.90;;;12.79;100.00;98342.50;4947083;28;20057;-74
2023/07/18 00:50:16;;;;;;;3.10;0.70;;;14.10;99.90;;;12.76;100.00;98334.81;4931885;29;20047;-73
2023/07/18 00:52:48;;;;;;;1.67;0.60;;;14.00;99.90;;;12.75;100.00;98333.97;4967314;28;20149;-74
2023/07/18 00:55:16;;;;;;;1.73;0.60;;;13.90;99.90;;;12.62;100.00;98337.97;4954032;28;20055;-74
2023/07/18 00:57:47;;;;;;;4.13;0.70;;;13.90;99.90;;;12.47;100.00;98341.16;4955882;28;20055;-75
2023/07/18 01:00:16;;;;;;;2.85;0.73;;;13.80;99.90;;;12.35;100.00;98348.50;4935728;28;20058;-75
2023/07/18 01:02:45;;;;;;;3.92;0.75;;;13.80;99.90;;;12.42;100.00;98348.28;4956876;28;20046;-74
2023/07/18 01:05:18;;;;;;;3.97;0.93;;;13.80;99.90;;;12.59;100.00;98343.31;4942374;28;20046;-75
2023/07/18 01:07:47;;;;;;;2.25;0.73;;;13.70;99.90;;;12.46;100.00;98342.91;4939609;28;20122;-74
2023/07/18 01:10:27;;;;;;;2.33;0.70;;;13.70;99.90;;;12.52;100.00;98355.72;4954037;28;20055;-73
2023/07/18 01:12:57;;;;;;;1.90;0.60;;;13.60;99.90;;;12.33;100.00;98352.91;4956114;28;20058;-73
2023/07/18 01:15:28;;;;;;;2.10;0.50;;;13.60;99.90;;;12.40;100.00;98352.69;4952231;28;20587;-74
2023/07/18 01:18:02;;;;;;;4.95;0.70;;;13.60;99.90;;;12.50;100.00;98352.31;4972272;28;20062;-74
2023/07/18 01:20:29;;;;;;;3.60;0.88;;;13.40;99.90;;;12.43;100.00;98349.97;4956636;28;20055;-73
2023/07/18 01:23:03;;;;;;;5.55;0.90;;;13.30;99.90;;;12.27;100.00;98347.09;4955019;28;20214;-74
2023/07/18 01:25:33;;;;;;;2.67;0.90;;;13.30;99.90;;;12.46;100.00;98357.69;4952710;28;20062;-75
2023/07/18 01:28:06;;;;;;;8.90;0.85;;;13.40;99.90;;;12.50;100.00;98360.13;4941722;28;20055;-74
2023/07/18 01:30:33;;;;;;;1.23;0.60;;;13.40;99.90;;;12.50;100.00;98351.47;4957749;28;20051;-75
2023/07/18 01:33:01;;;;;;;4.65;0.80;;;13.40;99.90;;;12.34;100.00;98349.44;4957002;28;20051;-75
2023/07/18 01:35:29;;;;;;;4.25;0.93;;;13.40;99.90;;;12.47;100.00;98342.00;4951746;28;20056;-75
2023/07/18 01:37:57;;;;;;;2.58;0.70;;;13.30;99.90;;;12.41;100.00;98337.03;4937990;28;20503;-74
2023/07/18 01:40:26;;;;;;;4.50;0.85;;;13.30;99.90;;;12.35;100.00;98340.69;4941944;28;20228;-72
2023/07/18 01:42:57;;;;;;;3.75;1.00;;;13.30;99.90;;;12.26;100.00;98348.84;4949125;28;20051;-74
2023/07/18 01:45:27;;;;;;;3.00;1.30;;;13.30;99.90;;;12.25;100.00;98349.78;4963282;28;20052;-73
2023/07/18 01:47:56;;;;;;;3.13;0.80;;;13.20;99.90;;;12.31;100.00;98344.31;4968742;28;20105;-74
2023/07/18 01:50:28;;;;;;;3.50;0.90;;;13.20;99.90;;;12.37;100.00;98340.66;4953874;28;20103;-73
2023/07/18 01:52:56;;;;;;;4.23;1.33;;;13.20;99.90;;;12.18;100.00;98334.41;4953008;28;20464;-74
2023/07/18 01:55:23;;;;;;;5.65;0.93;;;13.20;99.90;;;12.04;100.00;98330.59;4946232;28;20078;-74
2023/07/18 01:57:51;;;;;;;5.15;1.13;;;13.10;99.90;;;12.15;100.00;98335.38;4954415;28;20110;-75
2023/07/18 02:00:20;;;;;;;8.35;1.00;;;13.10;99.90;;;12.14;100.00;98337.16;4938988;29;20059;-74
2023/07/18 02:02:55;;;;;;;5.68;0.82;;;13.10;99.90;;;12.06;100.00;98341.78;4927475;29;20662;-75
2023/07/18 02:05:31;;;;;;;1.75;0.77;;;13.10;99.90;;;12.11;100.00;98339.00;4950764;28;20500;-74
2023/07/18 02:08:03;;;;;;;4.43;0.95;;;13.10;99.90;;;12.13;100.00;98339.78;4952725;28;20605;-75
2023/07/18 02:10:34;;;;;;;1.98;0.80;;;13.10;99.90;;;12.22;100.00;98329.03;4951312;28;20051;-74
2023/07/18 02:13:03;;;;;;;4.30;0.90;;;13.10;99.90;;;12.18;100.00;98329.22;4956151;28;20096;-72
2023/07/18 02:15:30;;;;;;;2.75;1.00;;;13.10;99.90;;;12.29;100.00;98325.34;4937673;28;20527;-75
2023/07/18 02:17:58;;;;;;;4.50;1.00;;;13.10;99.90;;;12.07;100.00;98327.88;4953854;28;20134;-74
2023/07/18 02:20:26;;;;;;;3.75;0.82;;;13.00;99.90;;;12.27;100.00;98323.66;4954422;28;20051;-73
2023/07/18 02:23:06;;;;;;;5.32;0.80;;;13.10;99.90;;;12.04;100.00;98321.91;4953060;28;20047;-75
2023/07/18 02:25:33;;;;;;;1.73;0.70;;;13.10;99.90;;;12.10;100.00;98327.75;4951070;28;20043;-74
2023/07/18 02:28:01;;;;;;;4.75;1.20;;;13.10;99.90;;;12.14;100.00;98325.91;4947453;28;20063;-74
2023/07/18 02:30:29;;;;;;;4.88;0.93;;;13.00;99.90;;;12.12;100.00;98322.50;4950409;28;20631;-74
2023/07/18 02:32:57;;;;;;;2.80;0.70;;;13.00;99.90;;;12.09;100.00;98322.63;4963759;28;20044;-74
2023/07/18 02:35:24;;;;;;;6.13;0.80;;;12.90;99.90;;;12.11;100.00;98321.66;4951583;28;20137;-74
2023/07/18 02:37:54;;;;;;;3.47;0.98;;;12.90;99.90;;;12.00;100.00;98323.81;4951367;28;20110;-75
2023/07/18 02:40:22;;;;;;;4.20;1.00;;;12.90;99.90;;;11.93;100.00;98325.78;4944801;28;20472;-74
2023/07/18 02:42:53;;;;;;;6.38;1.00;;;12.80;99.90;;;11.89;100.00;98326.78;4951811;28;20070;-75
2023/07/18 02:45:20;;;;;;;10.95;1.00;;;12.80;99.90;;;11.92;100.00;98331.03;4955516;28;20098;-75
2023/07/18 02:47:47;;;;;;;2.97;0.95;;;12.70;99.90;;;11.83;100.00;98331.31;4952933;28;20133;-74
2023/07/18 02:50:14;;;;;;;5.22;0.90;;;12.70;99.90;;;11.86;100.00;98328.59;4964305;28;20102;-75
2023/07/18 02:52:43;;;;;;;3.67;0.80;;;12.60;99.90;;;11.90;100.00;98325.03;4955556;28;20057;-75
2023/07/18 02:55:13;;;;;;;11.45;1.42;;;12.60;99.90;;;11.85;100.00;98332.97;4950975;28;20061;-75
2023/07/18 02:57:40;;;;;;;4.57;0.90;;;12.60;99.90;;;11.78;100.00;98341.88;4951826;28;20046;-75
2023/07/18 03:00:19;;;;;;;4.97;1.42;;;12.60;99.90;;;11.68;100.00;98343.13;4952031;28;20130;-75
2023/07/18 03:02:51;;;;;;;3.55;1.20;;;12.60;99.90;;;11.64;100.00;98352.78;4935500;28;20054;-75
2023/07/18 03:05:22;;;;;;;2.33;0.95;;;12.50;99.90;;;11.67;100.00;98357.84;4959881;28;20047;-74
2023/07/18 03:07:52;;;;;;;3.80;1.30;;;12.50;99.90;;;11.73;100.00;98351.63;4956395;28;20179;-75
2023/07/18 03:10:20;;;;;;;7.88;1.05;;;12.40;99.90;;;11.76;100.00;98353.25;4955010;28;20051;-74
2023/07/18 03:12:48;;;;;;;5.75;0.90;;;12.50;99.90;;;11.72;100.00;98355.09;4957259;28;20093;-74
2023/07/18 03:15:20;;;;;;;2.90;0.93;;;12.40;99.90;;;11.58;100.00;98352.13;4956438;28;20208;-74
2023/07/18 03:17:49;;;;;;;4.47;1.23;;;12.40;99.90;;;11.52;100.00;98358.41;4937733;29;20473;-75
2023/07/18 03:20:17;;;;;;;3.63;1.10;;;12.40;99.90;;;11.50;100.00;98361.03;4970150;28;20051;-74
2023/07/18 03:22:50;;;;;;;4.07;1.33;;;12.40;99.90;;;11.55;100.00;98357.44;4955668;28;20047;-74
2023/07/18 03:25:20;;;;;;;3.08;0.93;;;12.50;99.90;;;11.57;100.00;98353.03;4955109;28;20055;-74
2023/07/18 03:27:48;;;;;;;6.57;1.48;;;12.50;99.90;;;11.52;100.00;98355.81;4941104;28;20047;-75
2023/07/18 03:30:16;;;;;;;7.13;1.45;;;12.50;99.90;;;11.48;100.00;98351.59;4959650;28;20046;-75
2023/07/18 03:32:44;;;;;;;4.97;1.20;;;12.50;99.90;;;11.42;100.00;98352.66;4957322;28;20051;-74
2023/07/18 03:35:14;;;;;;;4.38;1.40;;;12.50;99.90;;;11.44;100.00;98357.81;4952923;28;20090;-74
2023/07/18 03:37:45;;;;;;;4.57;0.95;;;12.50;99.90;;;11.47;100.00;98360.28;4957505;28;20053;-74
2023/07/18 03:40:21;;;;;;;4.32;1.00;;;12.40;99.90;;;11.49;100.00;98359.38;4954164;28;20593;-74
2023/07/18 03:42:49;;;;;;;5.80;1.10;;;12.40;99.90;;;11.42;100.00;98363.03;4945101;29;20061;-75
2023/07/18 03:45:17;;;;;;;8.30;1.30;;;12.30;99.90;;;11.39;100.00;98360.56;4952890;28;20299;-75
2023/07/18 03:47:46;;;;;;;6.70;1.30;;;12.30;99.90;;;11.30;100.00;98363.47;4953852;28;20081;-74
2023/07/18 03:50:18;;;;;;;3.88;1.38;;;12.20;99.90;;;11.37;100.00;98359.75;4932675;28;20054;-75
2023/07/18 03:52:45;;;;;;;8.93;1.25;;;12.30;99.90;;;11.39;100.00;98357.13;4954373;28;20113;-75
2023/07/18 03:55:13;;;;;;;4.35;1.80;;;12.20;99.90;;;11.30;100.00;98353.91;4957529;28;20062;-74
2023/07/18 03:57:42;;;;;;;3.63;1.30;;;12.30;99.90;;;11.14;100.00;98350.13;4956605;28;20051;-74
2023/07/18 04:00:13;;;;;;;8.23;1.50;;;12.20;99.90;;;11.27;100.00;98355.78;4954048;28;20059;-75
2023/07/18 04:02:44;;;;;;;5.82;1.60;;;12.20;99.90;;;11.35;100.00;98355.50;4941884;28;20070;-74
2023/07/18 04:05:17;;;;;;;2.85;1.35;;;12.20;99.90;;;11.40;100.00;98357.03;4950938;28;20051;-74
2023/07/18 04:07:47;;;;;;;8.80;1.63;;;12.20;99.90;;;11.30;100.00;98356.50;4966773;28;20179;-74
2023/07/18 04:10:14;;;;;;;4.95;1.48;;;12.20;99.90;;;11.42;100.00;98355.25;4953894;28;20047;-74
2023/07/18 04:12:42;;;;;;;7.53;1.80;;;12.20;99.90;;;11.44;100.00;98353.44;4955521;28;20060;-74
2023/07/18 04:15:12;;;;;;;4.63;1.48;;;12.20;99.90;;;11.47;100.00;98353.38;4957736;28;20138;-74
2023/07/18 04:17:40;;;;;;;5.07;1.90;;;12.30;99.90;;;11.65;100.00;98341.47;4954542;28;20061;-74
2023/07/18 04:20:08;;;;;;;3.35;1.23;;;12.40;99.90;;;11.83;100.00;98345.16;4956331;28;20075;-75
2023/07/18 04:22:36;;;;;;;5.47;1.58;;;12.50;99.90;;;11.83;100.00;98336.53;4958243;28;20079;-73
2023/07/18 04:25:05;;;;;;;6.32;1.98;;;12.60;99.90;;;11.62;100.00;98330.31;4953963;28;20086;-74
2023/07/18 04:27:33;;;;;;;9.63;2.22;;;12.60;99.90;;;11.66;100.00;98340.56;4936946;28;20063;-73
2023/07/18 04:30:00;;;;;;;5.50;1.63;;;12.70;99.90;;;11.89;100.00;98336.34;4966965;28;20129;-74
2023/07/18 04:32:28;;;;;;;5.68;1.73;;;12.70;99.90;;;11.98;100.00;98335.19;4952159;28;20051;-73
2023/07/18 04:34:55;;;;;;;6.20;2.17;;;12.80;99.90;;;12.11;100.00;98329.47;4952900;28;20051;-74
2023/07/18 04:37:23;;;;;;;5.60;1.83;;;12.90;99.90;;;12.32;100.00;98333.03;4955734;28;21850;-73
2023/07/18 04:39:50;;;;;;;6.07;1.85;;;13.00;99.90;;;12.25;100.00;98321.16;4956335;28;20134;-73
2023/07/18 04:42:17;;;;;;;5.90;2.10;;;13.00;99.90;;;12.49;100.00;98313.28;4951284;28;20495;-72
2023/07/18 04:44:48;;;;;;;6.45;1.98;;;13.10;99.90;;;12.59;100.00;98300.75;4955029;28;20098;-73
2023/07/18 04:47:16;;;;;;;4.53;2.17;;;13.10;99.90;;;12.61;100.00;98294.56;4948404;28;20048;-73
2023/07/18 04:49:45;;;;;;;5.55;1.95;;;13.20;99.90;;;12.39;100.00;98291.97;4955804;28;20141;-72
2023/07/18 04:52:12;;;;;;;4.57;2.15;;;13.20;99.90;;;12.64;100.00;98289.28;4953203;28;22099;-73
2023/07/18 04:54:40;;;;;;;7.35;2.00;;;13.20;99.90;;;12.69;100.00;98286.47;4954169;28;20047;-73
2023/07/18 04:57:09;;;;;;;4.15;2.00;;;13.30;99.90;;;12.73;100.00;98281.09;4950861;28;20051;-73
2023/07/18 04:59:38;;;;;;;5.93;2.05;;;13.30;99.90;;;12.92;100.00;98273.38;4946688;28;20080;-74
2023/07/18 05:02:07;;;;;;;5.95;1.98;;;13.40;99.90;;;12.97;100.00;98267.97;4952485;28;20111;-76
2023/07/18 05:04:34;;;;;;;8.20;2.58;;;13.50;99.90;;;13.19;100.00;98266.16;4948521;28;20081;-72
2023/07/18 05:07:15;;;;;;;4.13;1.65;;;13.60;99.90;;;13.19;100.00;98254.91;4965071;28;20055;-73
2023/07/18 05:09:43;;;;;;;5.68;2.10;;;13.70;99.90;;;13.32;100.00;98252.63;4954684;28;20046;-73
2023/07/18 05:12:13;;;;;;;4.03;1.90;;;13.80;99.90;;;13.47;100.00;98245.91;4954854;28;20051;-74
2023/07/18 05:14:42;;;;;;;6.72;1.98;;;14.00;99.90;;;13.59;100.00;98240.16;4952084;28;20071;-74
2023/07/18 05:17:10;;;;;;;5.97;2.13;;;14.10;99.90;;;13.87;100.00;98225.91;4952289;28;21947;-75
2023/07/18 05:19:39;;;;;;;6.35;1.77;;;14.20;99.90;;;14.02;100.00;98219.94;4937169;28;20051;-74
2023/07/18 05:22:07;;;;;;;4.85;2.00;;;14.40;99.90;;;14.12;100.00;98215.16;4930560;28;20054;-74
2023/07/18 05:24:41;;;;;;;4.55;1.60;;;14.60;99.90;;;14.31;100.00;98210.75;4950128;28;20530;-74
2023/07/18 05:27:09;;;;;;;6.95;2.53;;;14.70;99.90;;;14.31;100.00;98197.69;4956942;28;20051;-74
2023/07/18 05:29:37;;;;;;;5.60;1.95;;;14.70;99.90;;;14.43;100.00;98202.31;4952341;28;20054;-73
2023/07/18 05:32:06;;;;;;;4.03;1.88;;;14.80;99.90;;;14.60;100.00;98204.16;4935623;28;20428;-73
2023/07/18 05:34:33;;;;;;;5.30;2.33;;;15.00;99.90;;;14.87;100.00;98201.13;4954028;28;20051;-73
2023/07/18 05:37:01;;;;;;;3.03;1.58;;;15.10;99.90;;;15.10;100.00;98189.50;4951571;28;20090;-73
2023/07/18 05:39:28;;;;;;;6.25;1.70;;;15.30;99.90;;;15.18;100.00;98183.84;4952628;28;20393;-74
2023/07/18 05:41:55;;;;;;;5.45;1.70;;;15.50;99.90;;;15.59;100.00;98170.38;4952618;28;20047;-73
2023/07/18 05:44:23;;;;;;;4.28;1.58;;;15.70;99.90;;;15.74;100.00;98166.97;4954260;28;20519;-74
2023/07/18 05:47:02;;;;;;;6.28;2.15;;;16.00;99.90;;;15.76;100.00;98157.28;4964737;28;20126;-73
2023/07/18 05:49:29;;;;;;;4.95;1.50;;;16.20;99.90;;;16.13;100.00;98139.53;4946544;28;20047;-73
2023/07/18 05:51:59;;;;;;;5.95;2.03;;;16.30;99.90;;;16.21;100.00;98139.09;4951869;28;20110;-73
2023/07/18 05:54:26;;;;;;;4.00;2.08;;;16.40;99.90;;;16.62;100.00;98136.69;4930659;28;20105;-72
2023/07/18 05:56:53;;;;;;;5.70;2.00;;;16.60;99.90;;;16.83;100.00;98132.03;4954211;28;20062;-73
2023/07/18 05:59:20;;;;;;;6.22;2.53;;;16.80;99.90;;;16.80;100.00;98121.72;4953312;28;20141;-71
2023/07/18 06:01:51;;;;;;;5.75;2.03;;;17.00;99.90;;;17.11;100.00;98120.72;4965024;28;20110;-72
2023/07/18 06:04:18;;;;;;;3.90;2.00;;;17.20;99.90;;;17.41;100.00;98119.78;4936389;28;20567;-73
2023/07/18 06:06:46;;;;;;;4.20;1.60;;;17.50;99.90;;;17.63;100.00;98113.19;4948747;28;20051;-70
2023/07/18 06:09:13;;;;;;;6.15;1.90;;;17.70;99.90;;;17.82;100.00;98103.25;4952364;28;20051;-73
2023/07/18 06:11:44;;;;;;;4.93;2.20;;;17.90;99.90;;;18.02;100.00;98099.38;4950580;28;20496;-74
2023/07/18 06:14:11;;;;;;;6.93;2.00;;;18.10;99.90;;;18.01;100.00;98102.91;4954208;28;20114;-74
2023/07/18 06:16:38;;;;;;;5.55;2.17;;;18.30;99.90;;;18.19;100.00;98100.88;4950019;28;20118;-74
2023/07/18 06:19:06;;;;;;;6.10;2.00;;;18.40;99.90;;;18.24;100.00;98101.41;4951746;28;20077;-74
2023/07/18 06:21:36;;;;;;;3.83;1.95;;;18.60;99.90;;;18.23;100.00;98094.50;4949063;28;20065;-73
2023/07/18 06:24:07;;;;;;;4.63;1.73;;;18.70;99.90;;;18.53;100.00;98091.63;4944809;28;20054;-73
2023/07/18 06:26:50;;;;;;;6.00;2.00;;;18.80;99.90;;;18.56;100.00;98088.75;4952231;28;20137;-74
2023/07/18 06:29:22;;;;;;;4.65;1.48;;;18.90;99.90;;;18.72;100.00;98090.38;4951544;28;20138;-74
2023/07/18 06:31:50;;;;;;;5.47;2.63;;;19.00;99.90;;;18.86;100.00;98090.34;4951631;28;20059;-73
2023/07/18 06:34:20;;;;;;;7.15;2.05;;;19.10;99.90;;;18.65;100.00;98084.69;4940661;28;20059;-74
2023/07/18 06:36:47;;;;;;;6.95;1.90;;;19.20;99.90;;;18.72;100.00;98080.69;4949654;28;20048;-74
2023/07/18 06:39:16;;;;;;;6.65;1.65;;;19.30;99.90;;;19.09;100.00;98083.50;4953250;28;20058;-74
2023/07/18 06:41:46;;;;;;;5.25;1.77;;;19.40;99.90;;;19.14;100.00;98083.16;4935087;29;20063;-74
2023/07/18 06:44:19;;;;;;;;;;;19.50;99.90;;;19.15;100.00;98079.56;4950244;28;20050;-75
2023/07/18 06:46:48;;;;;;;6.82;2.00;;;19.60;99.90;;;19.48;100.00;98076.38;4951219;28;19930;-75
2023/07/18 06:49:18;;;;;;;4.47;1.42;;;19.70;99.90;;;19.53;100.00;98079.53;4950822;28;20051;-74
2023/07/18 06:51:46;;;;;;;6.72;1.90;;;19.90;99.90;;;19.78;100.00;98080.44;4935438;29;20084;-74
2023/07/18 06:54:14;;;;;;;3.95;1.60;;;20.00;99.90;;;19.72;100.00;98080.88;4943734;28;20069;-73
2023/07/18 06:56:42;;;;;;;5.38;1.65;;;20.10;99.90;;;19.69;100.00;98075.81;4950049;28;20051;-74
2023/07/18 06:59:10;;;;;;;5.88;1.63;;;20.20;99.90;;;19.64;100.00;98074.31;4945821;28;20051;-75
2023/07/18 07:01:39;;;;;;;3.88;1.67;;;20.30;99.90;;;19.66;100.00;98074.22;4951924;28;20048;-73
2023/07/18 07:04:08;;;;;;;4.90;1.83;;;20.30;99.90;;;19.71;100.00;98071.28;4928245;29;20464;-74
2023/07/18 07:06:41;;;;;;;4.88;1.90;;;20.30;99.90;;;19.76;100.00;98066.53;4951054;28;20152;-73
2023/07/18 07:09:14;;;;;;;5.10;1.60;;;20.40;99.90;;;19.87;100.00;98071.03;4948740;28;20050;-74
2023/07/18 07:11:43;;;;;;;3.63;2.00;;;20.50;99.90;;;20.08;100.00;98072.06;4946281;28;20094;-74
2023/07/18 07:14:13;;;;;;;5.40;2.00;;;20.50;99.90;;;20.19;100.00;98073.94;4948013;28;20055;-72
2023/07/18 07:16:47;;;;;;;5.65;1.80;;;20.60;99.90;;;20.51;100.00;98066.25;4951227;28;20504;-74
2023/07/18 07:19:15;;;;;;;3.58;1.65;;;20.70;99.90;;;20.89;100.00;98065.13;4951583;28;20048;-75
2023/07/18 07:21:43;;;;;;;4.03;1.63;;;20.90;99.90;;;20.70;100.00;98068.34;4949106;28;20051;-74
2023/07/18 07:24:13;;;;;;;4.40;1.75;;;21.10;99.90;;;20.33;100.00;98071.09;4944530;28;20051;-74
2023/07/18 07:26:43;;;;;;;5.70;2.03;;;21.20;99.90;;;20.16;100.00;98066.22;4953724;28;20052;-73
2023/07/18 07:29:16;;;;;;;5.70;2.08;;;21.10;99.90;;;19.99;100.00;98049.03;4950566;28;20102;-75
2023/07/18 07:31:46;;;;;;;4.30;2.10;;;21.00;99.90;;;20.07;100.00;98051.97;4932684;28;20054;-74
2023/07/18 07:34:13;;;;;;;3.30;1.45;;;20.90;99.90;;;20.59;100.00;98045.44;4948962;28;20440;-75
2023/07/18 07:36:41;;;;;;;4.43;1.60;;;20.90;99.90;;;20.64;100.00;98047.72;4954735;28;20078;-73
2023/07/18 07:39:17;;;;;;;5.68;1.50;;;21.10;99.90;;;20.71;100.00;98043.69;4949577;28;20066;-74
2023/07/18 07:41:48;;;;;;;4.45;1.58;;;21.10;99.90;;;20.79;100.00;98048.34;4951966;28;20059;-74
2023/07/18 07:44:15;;;;;;;4.13;1.73;;;21.30;99.90;;;20.59;100.00;98047.22;4931120;28;20059;-74
2023/07/18 07:47:03;;;;;;;4.65;1.70;;;21.40;99.90;;;20.74;100.00;98053.16;4947134;28;20051;-71
2023/07/18 07:49:30;;;;;;;8.25;2.00;;;21.40;99.90;;;20.73;100.00;98048.81;4949857;28;20047;-74
2023/07/18 07:51:58;;;;;;;3.90;1.70;;;21.30;99.90;;;20.80;100.00;98032.41;4952279;28;20050;-75
2023/07/18 07:54:27;;;;;;;4.00;1.52;;;21.50;99.90;;;20.80;100.00;98031.56;4965022;28;20047;-74
2023/07/18 07:56:56;;;;;;;4.43;2.03;;;21.50;99.90;;;21.17;100.00;98037.47;4953571;28;20625;-73
2023/07/18 07:59:24;;;;;;;3.65;1.42;;;21.50;99.90;;;21.25;100.00;98034.22;4946218;28;20447;-74
2023/07/18 08:01:52;;;;;;;4.95;1.52;;;21.70;99.90;;;20.97;100.00;98030.25;4952913;28;20051;-73
2023/07/18 08:04:21;;;;;;;5.95;1.73;;;21.70;99.90;;;21.03;100.00;98028.00;4957558;28;20043;-73
2023/07/18 08:06:49;;;;;;;4.03;1.48;;;21.60;99.90;;;21.26;100.00;98020.06;4936217;28;20087;-73
2023/07/18 08:09:18;;;;;;;4.25;1.42;;;21.80;99.90;;;21.24;100.00;98020.16;4954336;28;20075;-73
2023/07/18 08:11:46;;;;;;;3.40;1.35;;;21.90;99.90;;;21.57;100.00;98029.03;4953004;28;20150;-72
2023/07/18 08:14:14;;;;;;;8.52;1.67;;;22.00;99.90;;;21.93;100.00;98013.81;4952916;28;20075;-74
2023/07/18 08:16:41;;;;;;;2.95;1.35;;;22.10;99.90;;;21.82;100.00;98016.47;4951485;28;20153;-74
2023/07/18 08:19:11;;;;;;;4.45;1.40;;;22.40;99.90;;;21.91;100.00;98021.84;4951950;28;20066;-74
2023/07/18 08:21:38;;;;;;;4.57;1.40;;;22.50;99.90;;;22.38;100.00;98020.72;4953829;28;20055;-74
2023/07/18 08:24:06;;;;;;;3.75;1.30;;;22.50;99.90;;;21.99;100.00;98023.88;4937290;28;20063;-73
2023/07/18 08:26:34;;;;;;;5.35;1.58;;;22.50;99.90;;;22.57;100.00;98012.91;4957798;28;20051;-74
2023/07/18 08:29:01;;;;;;;5.07;1.55;;;22.80;99.90;;;22.05;100.00;98007.50;4955157;28;20082;-74
2023/07/18 08:31:29;;;;;;;7.20;1.50;;;22.80;99.90;;;22.34;100.00;97994.53;4939995;28;20047;-75
2023/07/18 08:33:57;;;;;;;3.83;1.50;;;22.90;99.90;;;22.80;100.00;97983.63;4956070;28;20051;-74
2023/07/18 08:36:25;;;;;;;5.13;1.23;;;23.00;99.90;;;23.23;100.00;97975.47;4956301;28;20776;-74
2023/07/18 08:38:54;;;;;;;12.82;1.73;;;23.20;99.90;;;23.15;100.00;97976.16;4953283;28;20115;-73
2023/07/18 08:41:22;;;;;;;3.40;1.20;;;23.50;99.90;;;23.16;100.00;97958.44;4949101;28;20126;-74
2023/07/18 08:43:50;;;;;;;4.50;1.35;;;23.50;99.90;;;24.21;100.00;97949.88;4955466;28;20060;-73
2023/07/18 08:46:18;;;;;;;5.95;1.33;;;23.60;99.90;;;24.47;100.00;97954.56;4948953;28;20070;-74
2023/07/18 08:48:54;;;;;;;2.75;1.10;;;24.00;99.90;;;24.67;100.00;97939.47;4960789;28;20058;-72
2023/07/18 08:51:21;;;;;;;2.72;1.10;;;24.20;98.30;;;24.99;100.00;97944.34;4946676;28;20650;-74
2023/07/18 08:53:52;;;;;;;3.20;1.08;;;24.40;96.80;;;25.30;100.00;97942.25;4952262;28;20143;-74
2023/07/18 08:56:21;;;;;;;3.22;1.00;;;24.60;96.70;;;26.15;100.00;97939.25;4953147;28;20123;-74
2023/07/18 08:58:48;;;;;;;5.15;1.20;;;25.10;95.70;;;26.34;100.00;97935.53;4966410;28;20053;-71
2023/07/18 09:01:17;;;;;;;2.67;0.93;;;25.80;95.30;;;26.12;100.00;97916.44;4965428;28;20066;-74
2023/07/18 09:03:46;;;;;;;3.70;1.13;;;26.40;94.40;;;26.22;100.00;97903.03;4947796;28;20047;-73
2023/07/18 09:06:19;;;;;;;3.67;1.10;;;26.70;94.40;;;26.63;100.00;97904.13;4953605;28;20061;-74
2023/07/18 09:08:48;;;;;;;2.72;0.90;;;27.00;93.10;;;27.08;100.00;97905.66;4953579;28;20067;-74
2023/07/18 09:11:19;;;;;;;3.75;1.10;;;27.40;93.00;;;26.37;100.00;97904.16;4949105;28;20078;-73
2023/07/18 09:13:49;;;;;;;4.15;1.05;;;27.60;90.70;;;27.94;100.00;97901.84;4964502;28;20046;-75
2023/07/18 09:16:21;;;;;;;7.43;1.00;;;28.30;91.50;;;27.61;100.00;97911.63;4935883;28;20567;-70
2023/07/18 09:19:04;;;;;;;3.90;0.82;;;28.90;90.10;;;27.77;100.00;97924.13;4942179;28;20437;-74
2023/07/18 09:21:32;;;;;;;3.30;1.10;;;29.20;88.40;;;26.95;100.00;97945.22;4944078;28;20139;-74
2023/07/18 09:24:02;;;;;;;4.95;1.13;;;29.40;87.60;;;26.52;100.00;97954.97;4944951;28;20435;-72
2023/07/18 09:26:30;;;;;;;5.15;1.25;;;29.00;85.60;;;27.56;100.00;97953.94;4953529;28;20047;-73
2023/07/18 09:28:57;;;;;;;5.75;1.13;;;28.50;89.00;;;27.41;98.21;97968.91;4935186;28;20738;-73
2023/07/18 09:31:26;;;;;;;3.05;0.90;;;28.70;86.50;;;27.03;96.08;97968.44;4948049;28;20054;-73
2023/07/18 09:33:54;;;;;;;3.88;1.00;;;27.90;84.50;;;27.54;97.16;97962.09;4968499;28;20078;-72
2023/07/18 09:36:27;;;;;;;4.72;1.20;;;28.30;85.60;;;27.92;95.79;97959.03;4946983;28;20114;-72
2023/07/18 09:38:56;;;;;;;3.47;0.80;;;28.40;84.90;;;28.19;96.04;97957.88;4946880;28;20105;-74
2023/07/18 09:41:23;;;;;;;3.03;1.00;;;28.90;86.00;;;28.06;94.68;97961.03;4949507;28;20055;-74
2023/07/18 09:43:53;;;;;;;2.03;0.80;;;29.00;85.00;;;27.08;99.97;97982.09;4944719;28;20717;-74
2023/07/18 09:46:40;;;;;;;4.40;1.10;;;28.10;85.60;;;26.29;100.00;97976.75;4946701;28;20058;-75
2023/07/18 09:49:09;;;;;;;3.88;1.15;;;27.70;85.00;;;26.16;100.00;97979.00;4947180;28;20660;-74
2023/07/18 09:51:49;;;;;;;5.95;1.20;;;27.40;86.50;;;26.96;100.00;97981.56;4954426;28;20047;-74
2023/07/18 09:54:17;;;;;;;4.60;1.10;;;27.90;88.00;;;26.61;100.00;97982.50;4931210;28;20401;-75
2023/07/18 09:56:45;;;;;;;2.40;0.80;;;27.90;85.20;;;26.30;100.00;97966.97;4951675;28;20107;-73
2023/07/18 09:59:13;;;;;;;2.85;0.88;;;27.80;85.80;;;26.80;100.00;97944.16;4962446;28;20047;-74
2023/07/18 10:01:40;;;;;;;4.35;1.10;;;27.60;86.10;;;25.96;100.00;97953.56;4927499;28;20074;-73
2023/07/18 10:04:07;;;;;;;3.22;1.08;;;27.10;85.90;;;25.87;100.00;97924.25;4949470;28;20138;-74
2023/07/18 10:06:35;;;;;;;2.75;1.00;;;26.60;86.90;;;26.26;100.00;97923.88;4950655;28;20055;-73
2023/07/18 10:09:02;;;;;;;3.92;1.20;;;26.60;88.00;;;26.13;100.00;97926.09;4953462;28;20146;-74
2023/07/18 10:11:29;;;;;;;4.30;0.90;;;26.80;87.60;;;26.60;100.00;97903.63;4946742;28;20056;-72
2023/07/18 10:14:08;;;;;;;9.93;1.10;;;26.80;88.70;;;25.91;100.00;97889.34;4946852;28;20519;-75
2023/07/18 10:16:35;;;;;;;4.00;0.90;;;26.60;88.90;;;26.16;100.00;97883.22;4951427;28;20471;-74
2023/07/18 10:19:23;;;;;;;4.53;0.98;;;26.60;88.70;;;27.05;100.00;97892.66;4951319;28;20085;-73
2023/07/18 10:21:56;;;;;;;2.78;0.90;;;27.00;88.20;;;27.76;100.00;97885.16;4962305;28;20134;-74